sensor_id;sensor_type;location;lat;lon;timestamp;temperature;humidity
19242;DHT22;9755;47.790;9.620;2023-05-07T00:01:41;12.30;99.90
19242;DHT22;9755;47.790;9.620;2023-05-07T00:04:08;12.20;99.90
19242;DHT22;9755;47.790;9.620;2023-05-07T00:06:35;12.20;99.90
19242;DHT22;9755;47.790;9.620;2023-05-07T00:09:02;12.10;99.90
19242;DHT22;9755;47.790;9.620;2023-05-07T00:11:30;12.00;99.90
19242;DHT22;9755;47.790;9.620;2023-05-07T00:13:57;12.00;99.90
19242;DHT22;9755;47.790;9.620;2023-05-07T00:16:25;11.90;99.90
19242;DHT22;9755;47.790;9.620;2023-05-07T00:18:52;12.00;99.90
19242;DHT22;9755;47.790;9.620;2023-05-07T00:21:20;12.00;99.90
19242;DHT22;9755;47.790;9.620;2023-05-07T00:23:47;12.00;99.90
19242;DHT22;9755;47.790;9.620;2023-05-07T00:26:14;11.90;99.90
19242;DHT22;9755;47.790;9.620;2023-05-07T00:28:41;11.90;99.90
19242;DHT22;9755;47.790;9.620;2023-05-07T00:31:08;11.80;99.90
19242;DHT22;9755;47.790;9.620;2023-05-07T00:33:38;11.70;99.90
19242;DHT22;9755;47.790;9.620;2023-05-07T00:36:05;11.90;99.90
19242;DHT22;9755;47.790;9.620;2023-05-07T00:38:32;12.00;99.90
19242;DHT22;9755;47.790;9.620;2023-05-07T00:40:59;12.20;99.90
19242;DHT22;9755;47.790;9.620;2023-05-07T00:43:27;12.20;99.90
19242;DHT22;9755;47.790;9.620;2023-05-07T00:45:55;12.20;99.90
19242;DHT22;9755;47.790;9.620;2023-05-07T00:48:22;12.20;99.90
19242;DHT22;9755;47.790;9.620;2023-05-07T00:50:51;12.30;99.90
19242;DHT22;9755;47.790;9.620;2023-05-07T00:53:19;12.30;99.90
19242;DHT22;9755;47.790;9.620;2023-05-07T00:55:46;12.30;99.90
19242;DHT22;9755;47.790;9.620;2023-05-07T00:58:13;12.20;99.90
19242;DHT22;9755;47.790;9.620;2023-05-07T01:00:40;12.10;99.90
19242;DHT22;9755;47.790;9.620;2023-05-07T01:03:07;12.20;99.90
19242;DHT22;9755;47.790;9.620;2023-05-07T01:05:34;12.00;99.90
19242;DHT22;9755;47.790;9.620;2023-05-07T01:08:04;12.00;99.90
19242;DHT22;9755;47.790;9.620;2023-05-07T01:10:31;12.00;99.90
19242;DHT22;9755;47.790;9.620;2023-05-07T01:12:59;12.00;99.90
19242;DHT22;9755;47.790;9.620;2023-05-07T01:15:26;11.90;99.90
19242;DHT22;9755;47.790;9.620;2023-05-07T01:17:56;11.90;99.90
19242;DHT22;9755;47.790;9.620;2023-05-07T01:20:23;11.90;99.90
19242;DHT22;9755;47.790;9.620;2023-05-07T01:22:52;12.00;99.90
19242;DHT22;9755;47.790;9.620;2023-05-07T01:25:20;12.00;99.90
19242;DHT22;9755;47.790;9.620;2023-05-07T01:27:47;12.00;99.90
19242;DHT22;9755;47.790;9.620;2023-05-07T01:30:14;12.00;99.90
19242;DHT22;9755;47.790;9.620;2023-05-07T01:32:44;11.90;99.90
19242;DHT22;9755;47.790;9.620;2023-05-07T01:35:18;11.80;99.90
19242;DHT22;9755;47.790;9.620;2023-05-07T01:37:46;11.80;99.90
19242;DHT22;9755;47.790;9.620;2023-05-07T01:40:15;11.70;99.90
19242;DHT22;9755;47.790;9.620;2023-05-07T01:42:43;11.60;99.90
19242;DHT22;9755;47.790;9.620;2023-05-07T01:45:10;11.60;99.90
19242;DHT22;9755;47.790;9.620;2023-05-07T01:47:38;11.70;99.90
19242;DHT22;9755;47.790;9.620;2023-05-07T01:50:06;11.80;99.90
19242;DHT22;9755;47.790;9.620;2023-05-07T01:52:36;11.70;99.90
19242;DHT22;9755;47.790;9.620;2023-05-07T01:55:05;11.60;99.90
19242;DHT22;9755;47.790;9.620;2023-05-07T01:57:33;11.40;99.90
19242;DHT22;9755;47.790;9.620;2023-05-07T02:00:01;11.30;99.90
19242;DHT22;9755;47.790;9.620;2023-05-07T02:02:31;11.40;99.90
19242;DHT22;9755;47.790;9.620;2023-05-07T02:04:59;11.60;99.90
19242;DHT22;9755;47.790;9.620;2023-05-07T02:07:26;11.60;99.90
19242;DHT22;9755;47.790;9.620;2023-05-07T02:09:54;11.60;99.90
19242;DHT22;9755;47.790;9.620;2023-05-07T02:12:21;11.50;99.90
19242;DHT22;9755;47.790;9.620;2023-05-07T02:14:50;11.40;99.90
19242;DHT22;9755;47.790;9.620;2023-05-07T02:17:17;11.30;99.90
19242;DHT22;9755;47.790;9.620;2023-05-07T02:19:44;11.20;99.90
19242;DHT22;9755;47.790;9.620;2023-05-07T02:22:11;11.10;99.90
19242;DHT22;9755;47.790;9.620;2023-05-07T02:24:38;11.00;99.90
19242;DHT22;9755;47.790;9.620;2023-05-07T02:27:05;11.10;99.90
19242;DHT22;9755;47.790;9.620;2023-05-07T02:29:32;11.20;99.90
19242;DHT22;9755;47.790;9.620;2023-05-07T02:32:00;11.20;99.90
19242;DHT22;9755;47.790;9.620;2023-05-07T02:34:27;11.20;99.90
19242;DHT22;9755;47.790;9.620;2023-05-07T02:36:54;11.10;99.90
19242;DHT22;9755;47.790;9.620;2023-05-07T02:39:21;11.10;99.90
19242;DHT22;9755;47.790;9.620;2023-05-07T02:41:48;11.00;99.90
19242;DHT22;9755;47.790;9.620;2023-05-07T02:44:15;10.80;99.90
19242;DHT22;9755;47.790;9.620;2023-05-07T02:46:42;10.60;99.90
19242;DHT22;9755;47.790;9.620;2023-05-07T02:49:11;10.60;99.90
19242;DHT22;9755;47.790;9.620;2023-05-07T02:51:38;10.60;99.90
19242;DHT22;9755;47.790;9.620;2023-05-07T02:54:05;10.40;99.90
19242;DHT22;9755;47.790;9.620;2023-05-07T02:56:32;10.40;99.90
19242;DHT22;9755;47.790;9.620;2023-05-07T02:58:59;10.40;99.90
19242;DHT22;9755;47.790;9.620;2023-05-07T03:01:26;10.20;99.90
19242;DHT22;9755;47.790;9.620;2023-05-07T03:03:53;10.20;99.90
19242;DHT22;9755;47.790;9.620;2023-05-07T03:06:22;10.40;99.90
19242;DHT22;9755;47.790;9.620;2023-05-07T03:08:49;10.50;99.90
19242;DHT22;9755;47.790;9.620;2023-05-07T03:11:16;10.60;99.90
19242;DHT22;9755;47.790;9.620;2023-05-07T03:13:43;10.60;99.90
19242;DHT22;9755;47.790;9.620;2023-05-07T03:16:10;10.60;99.90
19242;DHT22;9755;47.790;9.620;2023-05-07T03:18:37;10.50;99.90
19242;DHT22;9755;47.790;9.620;2023-05-07T03:21:04;10.50;99.90
19242;DHT22;9755;47.790;9.620;2023-05-07T03:23:32;10.40;99.90
19242;DHT22;9755;47.790;9.620;2023-05-07T03:25:59;10.40;99.90
19242;DHT22;9755;47.790;9.620;2023-05-07T03:28:26;10.40;99.90
19242;DHT22;9755;47.790;9.620;2023-05-07T03:30:53;10.40;99.90
19242;DHT22;9755;47.790;9.620;2023-05-07T03:33:20;10.40;99.90
19242;DHT22;9755;47.790;9.620;2023-05-07T03:35:47;10.40;99.90
19242;DHT22;9755;47.790;9.620;2023-05-07T03:38:14;10.40;99.90
19242;DHT22;9755;47.790;9.620;2023-05-07T03:40:43;10.30;99.90
19242;DHT22;9755;47.790;9.620;2023-05-07T03:43:10;10.30;99.90
19242;DHT22;9755;47.790;9.620;2023-05-07T03:45:36;10.20;99.90
19242;DHT22;9755;47.790;9.620;2023-05-07T03:48:04;10.10;99.90
19242;DHT22;9755;47.790;9.620;2023-05-07T03:50:31;9.90;99.90
19242;DHT22;9755;47.790;9.620;2023-05-07T03:52:58;10.00;99.90
19242;DHT22;9755;47.790;9.620;2023-05-07T03:55:25;10.20;99.90
19242;DHT22;9755;47.790;9.620;2023-05-07T03:57:54;10.30;99.90
19242;DHT22;9755;47.790;9.620;2023-05-07T04:00:22;10.20;99.90
19242;DHT22;9755;47.790;9.620;2023-05-07T04:02:49;10.10;99.90
19242;DHT22;9755;47.790;9.620;2023-05-07T04:05:16;10.20;99.90
19242;DHT22;9755;47.790;9.620;2023-05-07T04:07:43;10.10;99.90
19242;DHT22;9755;47.790;9.620;2023-05-07T04:10:10;9.90;99.90
19242;DHT22;9755;47.790;9.620;2023-05-07T04:12:39;9.90;99.90
19242;DHT22;9755;47.790;9.620;2023-05-07T04:15:08;9.80;99.90
19242;DHT22;9755;47.790;9.620;2023-05-07T04:17:35;9.70;99.90
19242;DHT22;9755;47.790;9.620;2023-05-07T04:20:02;9.70;99.90
19242;DHT22;9755;47.790;9.620;2023-05-07T04:22:30;9.60;99.90
19242;DHT22;9755;47.790;9.620;2023-05-07T04:24:57;9.70;99.90
19242;DHT22;9755;47.790;9.620;2023-05-07T04:27:24;9.80;99.90
19242;DHT22;9755;47.790;9.620;2023-05-07T04:29:52;10.00;99.90
19242;DHT22;9755;47.790;9.620;2023-05-07T04:32:22;10.20;99.90
19242;DHT22;9755;47.790;9.620;2023-05-07T04:34:50;10.30;99.90
19242;DHT22;9755;47.790;9.620;2023-05-07T04:37:17;10.50;99.90
19242;DHT22;9755;47.790;9.620;2023-05-07T04:39:44;10.90;99.90
19242;DHT22;9755;47.790;9.620;2023-05-07T04:42:14;11.10;99.90
19242;DHT22;9755;47.790;9.620;2023-05-07T04:44:41;11.30;99.90
19242;DHT22;9755;47.790;9.620;2023-05-07T04:47:08;11.50;99.90
19242;DHT22;9755;47.790;9.620;2023-05-07T04:49:37;11.80;99.90
19242;DHT22;9755;47.790;9.620;2023-05-07T04:52:04;12.10;99.90
19242;DHT22;9755;47.790;9.620;2023-05-07T04:54:31;12.50;99.90
19242;DHT22;9755;47.790;9.620;2023-05-07T04:56:58;13.10;99.90
19242;DHT22;9755;47.790;9.620;2023-05-07T04:59:25;13.60;99.90
19242;DHT22;9755;47.790;9.620;2023-05-07T05:01:52;14.20;99.90
19242;DHT22;9755;47.790;9.620;2023-05-07T05:04:19;14.50;99.90
19242;DHT22;9755;47.790;9.620;2023-05-07T05:06:47;15.00;99.90
19242;DHT22;9755;47.790;9.620;2023-05-07T05:09:14;15.40;99.90
19242;DHT22;9755;47.790;9.620;2023-05-07T05:11:42;15.90;99.90
19242;DHT22;9755;47.790;9.620;2023-05-07T05:14:09;16.40;99.90
19242;DHT22;9755;47.790;9.620;2023-05-07T05:16:36;17.10;99.90
19242;DHT22;9755;47.790;9.620;2023-05-07T05:19:03;17.80;99.90
19242;DHT22;9755;47.790;9.620;2023-05-07T05:21:30;18.00;99.90
19242;DHT22;9755;47.790;9.620;2023-05-07T05:23:59;17.90;99.90
19242;DHT22;9755;47.790;9.620;2023-05-07T05:26:25;17.90;99.90
19242;DHT22;9755;47.790;9.620;2023-05-07T05:28:52;18.20;99.90
19242;DHT22;9755;47.790;9.620;2023-05-07T05:31:19;18.50;99.90
19242;DHT22;9755;47.790;9.620;2023-05-07T05:33:46;19.10;99.90
19242;DHT22;9755;47.790;9.620;2023-05-07T05:36:13;19.60;99.90
19242;DHT22;9755;47.790;9.620;2023-05-07T05:38:40;19.90;99.90
19242;DHT22;9755;47.790;9.620;2023-05-07T05:41:09;20.30;99.60
19242;DHT22;9755;47.790;9.620;2023-05-07T05:43:36;21.00;99.10
19242;DHT22;9755;47.790;9.620;2023-05-07T05:46:03;21.30;97.50
19242;DHT22;9755;47.790;9.620;2023-05-07T05:48:31;21.50;96.30
19242;DHT22;9755;47.790;9.620;2023-05-07T05:50:58;20.80;96.20
19242;DHT22;9755;47.790;9.620;2023-05-07T05:53:25;21.10;95.60
19242;DHT22;9755;47.790;9.620;2023-05-07T05:55:52;21.20;95.80
19242;DHT22;9755;47.790;9.620;2023-05-07T05:58:21;21.50;95.00
19242;DHT22;9755;47.790;9.620;2023-05-07T06:00:48;21.80;93.40
19242;DHT22;9755;47.790;9.620;2023-05-07T06:03:17;22.00;92.50
19242;DHT22;9755;47.790;9.620;2023-05-07T06:05:44;21.90;92.10
19242;DHT22;9755;47.790;9.620;2023-05-07T06:08:11;22.20;91.60
19242;DHT22;9755;47.790;9.620;2023-05-07T06:10:39;23.20;90.20
19242;DHT22;9755;47.790;9.620;2023-05-07T06:13:07;23.60;87.00
19242;DHT22;9755;47.790;9.620;2023-05-07T06:15:35;23.90;84.70
19242;DHT22;9755;47.790;9.620;2023-05-07T06:18:02;25.00;80.00
19242;DHT22;9755;47.790;9.620;2023-05-07T06:20:29;25.90;75.30
19242;DHT22;9755;47.790;9.620;2023-05-07T06:22:56;26.40;71.00
19242;DHT22;9755;47.790;9.620;2023-05-07T06:25:23;26.20;66.80
19242;DHT22;9755;47.790;9.620;2023-05-07T06:27:50;26.00;67.00
19242;DHT22;9755;47.790;9.620;2023-05-07T06:30:17;26.70;65.50
19242;DHT22;9755;47.790;9.620;2023-05-07T06:32:46;26.00;63.60
19242;DHT22;9755;47.790;9.620;2023-05-07T06:35:13;25.20;64.60
19242;DHT22;9755;47.790;9.620;2023-05-07T06:37:42;25.00;66.10
19242;DHT22;9755;47.790;9.620;2023-05-07T06:40:10;25.40;65.70
19242;DHT22;9755;47.790;9.620;2023-05-07T06:42:37;25.40;66.40
19242;DHT22;9755;47.790;9.620;2023-05-07T06:45:05;26.50;65.50
19242;DHT22;9755;47.790;9.620;2023-05-07T06:47:32;27.00;63.10
19242;DHT22;9755;47.790;9.620;2023-05-07T06:50:00;28.00;60.40
19242;DHT22;9755;47.790;9.620;2023-05-07T06:52:27;27.80;57.40
19242;DHT22;9755;47.790;9.620;2023-05-07T06:54:54;28.50;54.20
19242;DHT22;9755;47.790;9.620;2023-05-07T06:57:21;28.40;56.60
19242;DHT22;9755;47.790;9.620;2023-05-07T06:59:48;28.90;52.20
19242;DHT22;9755;47.790;9.620;2023-05-07T07:02:15;29.70;50.40
19242;DHT22;9755;47.790;9.620;2023-05-07T07:04:42;28.40;49.00
19242;DHT22;9755;47.790;9.620;2023-05-07T07:07:12;28.20;50.00
19242;DHT22;9755;47.790;9.620;2023-05-07T07:09:39;28.00;49.30
19242;DHT22;9755;47.790;9.620;2023-05-07T07:12:06;29.10;49.10
19242;DHT22;9755;47.790;9.620;2023-05-07T07:14:33;29.40;50.30
19242;DHT22;9755;47.790;9.620;2023-05-07T07:17:00;29.50;47.70
19242;DHT22;9755;47.790;9.620;2023-05-07T07:19:27;29.50;45.80
19242;DHT22;9755;47.790;9.620;2023-05-07T07:21:54;28.50;45.30
19242;DHT22;9755;47.790;9.620;2023-05-07T07:24:22;28.20;46.10
19242;DHT22;9755;47.790;9.620;2023-05-07T07:26:49;27.60;45.70
19242;DHT22;9755;47.790;9.620;2023-05-07T07:29:16;27.90;46.10
19242;DHT22;9755;47.790;9.620;2023-05-07T07:31:44;29.40;47.00
19242;DHT22;9755;47.790;9.620;2023-05-07T07:34:11;30.50;45.00
19242;DHT22;9755;47.790;9.620;2023-05-07T07:36:38;31.20;44.30
19242;DHT22;9755;47.790;9.620;2023-05-07T07:39:05;31.20;42.40
19242;DHT22;9755;47.790;9.620;2023-05-07T07:41:34;31.40;42.70
19242;DHT22;9755;47.790;9.620;2023-05-07T07:44:02;31.80;40.30
19242;DHT22;9755;47.790;9.620;2023-05-07T07:46:29;32.50;39.10
19242;DHT22;9755;47.790;9.620;2023-05-07T07:48:56;32.40;36.60
19242;DHT22;9755;47.790;9.620;2023-05-07T07:51:24;32.90;36.10
19242;DHT22;9755;47.790;9.620;2023-05-07T07:53:52;33.20;35.60
19242;DHT22;9755;47.790;9.620;2023-05-07T07:56:19;33.20;34.50
19242;DHT22;9755;47.790;9.620;2023-05-07T07:58:47;32.40;33.80
19242;DHT22;9755;47.790;9.620;2023-05-07T08:01:14;32.20;34.10
19242;DHT22;9755;47.790;9.620;2023-05-07T08:03:42;31.50;33.80
19242;DHT22;9755;47.790;9.620;2023-05-07T08:06:09;31.80;35.10
19242;DHT22;9755;47.790;9.620;2023-05-07T08:08:36;30.50;36.30
19242;DHT22;9755;47.790;9.620;2023-05-07T08:11:03;30.20;38.80
19242;DHT22;9755;47.790;9.620;2023-05-07T08:13:30;30.70;37.80
19242;DHT22;9755;47.790;9.620;2023-05-07T08:15:58;32.00;37.10
19242;DHT22;9755;47.790;9.620;2023-05-07T08:18:25;32.40;38.10
19242;DHT22;9755;47.790;9.620;2023-05-07T08:20:54;32.60;35.40
19242;DHT22;9755;47.790;9.620;2023-05-07T08:23:21;32.80;34.10
19242;DHT22;9755;47.790;9.620;2023-05-07T08:25:49;32.60;33.40
19242;DHT22;9755;47.790;9.620;2023-05-07T08:28:16;32.60;35.70
19242;DHT22;9755;47.790;9.620;2023-05-07T08:30:44;33.30;34.20
19242;DHT22;9755;47.790;9.620;2023-05-07T08:33:13;32.30;34.10
19242;DHT22;9755;47.790;9.620;2023-05-07T08:35:40;30.50;36.80
19242;DHT22;9755;47.790;9.620;2023-05-07T08:38:07;30.50;36.00
19242;DHT22;9755;47.790;9.620;2023-05-07T08:40:37;30.30;36.20
19242;DHT22;9755;47.790;9.620;2023-05-07T08:43:05;31.30;37.00
19242;DHT22;9755;47.790;9.620;2023-05-07T08:45:34;29.90;34.20
19242;DHT22;9755;47.790;9.620;2023-05-07T08:48:02;30.90;36.90
19242;DHT22;9755;47.790;9.620;2023-05-07T08:50:35;31.80;37.30
19242;DHT22;9755;47.790;9.620;2023-05-07T08:53:03;32.00;34.20
19242;DHT22;9755;47.790;9.620;2023-05-07T08:55:30;31.20;33.90
19242;DHT22;9755;47.790;9.620;2023-05-07T08:57:57;30.30;35.30
19242;DHT22;9755;47.790;9.620;2023-05-07T09:00:24;30.30;34.90
19242;DHT22;9755;47.790;9.620;2023-05-07T09:02:52;31.10;36.30
19242;DHT22;9755;47.790;9.620;2023-05-07T09:05:19;29.20;36.20
19242;DHT22;9755;47.790;9.620;2023-05-07T09:07:48;28.80;37.40
19242;DHT22;9755;47.790;9.620;2023-05-07T09:10:16;28.80;39.20
19242;DHT22;9755;47.790;9.620;2023-05-07T09:12:43;28.10;40.40
19242;DHT22;9755;47.790;9.620;2023-05-07T09:15:10;28.10;40.00
19242;DHT22;9755;47.790;9.620;2023-05-07T09:17:40;29.40;41.70
19242;DHT22;9755;47.790;9.620;2023-05-07T09:20:08;30.30;39.20
19242;DHT22;9755;47.790;9.620;2023-05-07T09:22:36;30.20;38.80
19242;DHT22;9755;47.790;9.620;2023-05-07T09:25:06;30.80;38.40
19242;DHT22;9755;47.790;9.620;2023-05-07T09:27:33;30.90;37.00
19242;DHT22;9755;47.790;9.620;2023-05-07T09:30:03;30.60;35.10
19242;DHT22;9755;47.790;9.620;2023-05-07T09:32:35;31.00;36.60
19242;DHT22;9755;47.790;9.620;2023-05-07T09:35:04;31.00;37.20
19242;DHT22;9755;47.790;9.620;2023-05-07T09:37:31;31.90;36.90
19242;DHT22;9755;47.790;9.620;2023-05-07T09:39:58;31.40;32.10
19242;DHT22;9755;47.790;9.620;2023-05-07T09:42:27;31.20;34.90
19242;DHT22;9755;47.790;9.620;2023-05-07T09:44:54;31.10;33.90
19242;DHT22;9755;47.790;9.620;2023-05-07T09:47:24;29.70;34.70
19242;DHT22;9755;47.790;9.620;2023-05-07T09:49:56;27.90;36.80
19242;DHT22;9755;47.790;9.620;2023-05-07T09:52:23;28.50;40.30
19242;DHT22;9755;47.790;9.620;2023-05-07T09:54:55;29.40;39.20
19242;DHT22;9755;47.790;9.620;2023-05-07T09:57:26;30.00;38.00
19242;DHT22;9755;47.790;9.620;2023-05-07T09:59:55;29.60;39.50
19242;DHT22;9755;47.790;9.620;2023-05-07T10:02:23;29.80;38.70
19242;DHT22;9755;47.790;9.620;2023-05-07T10:04:52;29.90;38.90
19242;DHT22;9755;47.790;9.620;2023-05-07T10:07:21;29.40;38.20
19242;DHT22;9755;47.790;9.620;2023-05-07T10:09:50;28.90;39.70
19242;DHT22;9755;47.790;9.620;2023-05-07T10:12:18;28.90;39.30
19242;DHT22;9755;47.790;9.620;2023-05-07T10:14:48;29.70;42.30
19242;DHT22;9755;47.790;9.620;2023-05-07T10:17:16;30.20;36.60
19242;DHT22;9755;47.790;9.620;2023-05-07T10:19:44;29.00;32.80
19242;DHT22;9755;47.790;9.620;2023-05-07T10:22:13;29.00;34.90
19242;DHT22;9755;47.790;9.620;2023-05-07T10:24:42;28.20;35.00
19242;DHT22;9755;47.790;9.620;2023-05-07T10:27:16;28.60;36.60
19242;DHT22;9755;47.790;9.620;2023-05-07T10:30:05;28.80;36.00
19242;DHT22;9755;47.790;9.620;2023-05-07T10:32:39;28.40;34.60
19242;DHT22;9755;47.790;9.620;2023-05-07T10:35:10;28.80;32.50
19242;DHT22;9755;47.790;9.620;2023-05-07T10:37:39;29.50;32.20
19242;DHT22;9755;47.790;9.620;2023-05-07T10:40:08;27.70;30.30
19242;DHT22;9755;47.790;9.620;2023-05-07T10:43:03;27.00;33.40
19242;DHT22;9755;47.790;9.620;2023-05-07T10:45:32;27.60;33.70
19242;DHT22;9755;47.790;9.620;2023-05-07T10:48:27;28.20;35.70
19242;DHT22;9755;47.790;9.620;2023-05-07T10:51:22;29.10;34.60
19242;DHT22;9755;47.790;9.620;2023-05-07T10:54:19;28.80;31.20
19242;DHT22;9755;47.790;9.620;2023-05-07T10:56:46;28.00;33.50
19242;DHT22;9755;47.790;9.620;2023-05-07T10:59:35;28.80;32.70
19242;DHT22;9755;47.790;9.620;2023-05-07T11:02:08;28.70;30.80
19242;DHT22;9755;47.790;9.620;2023-05-07T11:04:37;29.00;29.70
19242;DHT22;9755;47.790;9.620;2023-05-07T11:07:24;28.60;30.50
19242;DHT22;9755;47.790;9.620;2023-05-07T11:09:55;28.60;29.60
19242;DHT22;9755;47.790;9.620;2023-05-07T11:12:53;29.20;31.20
19242;DHT22;9755;47.790;9.620;2023-05-07T11:15:40;27.40;29.70
19242;DHT22;9755;47.790;9.620;2023-05-07T11:18:10;30.00;31.30
19242;DHT22;9755;47.790;9.620;2023-05-07T11:20:48;30.30;29.90
19242;DHT22;9755;47.790;9.620;2023-05-07T11:23:56;30.10;26.40
19242;DHT22;9755;47.790;9.620;2023-05-07T11:26:28;29.60;24.90
19242;DHT22;9755;47.790;9.620;2023-05-07T11:28:56;28.70;25.40
19242;DHT22;9755;47.790;9.620;2023-05-07T11:31:27;27.70;27.10
19242;DHT22;9755;47.790;9.620;2023-05-07T11:33:57;28.80;26.80
19242;DHT22;9755;47.790;9.620;2023-05-07T11:36:24;29.40;27.70
19242;DHT22;9755;47.790;9.620;2023-05-07T11:38:52;28.60;26.90
19242;DHT22;9755;47.790;9.620;2023-05-07T11:41:19;29.50;29.10
19242;DHT22;9755;47.790;9.620;2023-05-07T11:43:57;29.10;27.30
19242;DHT22;9755;47.790;9.620;2023-05-07T11:46:24;29.70;27.00
19242;DHT22;9755;47.790;9.620;2023-05-07T11:48:52;29.30;25.40
19242;DHT22;9755;47.790;9.620;2023-05-07T11:51:21;28.20;26.30
19242;DHT22;9755;47.790;9.620;2023-05-07T11:53:50;29.20;24.50
19242;DHT22;9755;47.790;9.620;2023-05-07T11:56:18;30.20;26.10
19242;DHT22;9755;47.790;9.620;2023-05-07T11:58:47;31.30;25.20
19242;DHT22;9755;47.790;9.620;2023-05-07T12:01:15;32.40;26.00
19242;DHT22;9755;47.790;9.620;2023-05-07T12:03:45;32.10;25.00
19242;DHT22;9755;47.790;9.620;2023-05-07T12:06:14;32.50;26.40
19242;DHT22;9755;47.790;9.620;2023-05-07T12:08:43;32.40;24.20
19242;DHT22;9755;47.790;9.620;2023-05-07T12:11:14;32.50;23.50
19242;DHT22;9755;47.790;9.620;2023-05-07T12:13:43;32.70;23.90
19242;DHT22;9755;47.790;9.620;2023-05-07T12:16:10;31.90;22.60
19242;DHT22;9755;47.790;9.620;2023-05-07T12:18:37;31.10;24.10
19242;DHT22;9755;47.790;9.620;2023-05-07T12:21:05;31.40;24.70
19242;DHT22;9755;47.790;9.620;2023-05-07T12:23:34;31.90;24.40
19242;DHT22;9755;47.790;9.620;2023-05-07T12:26:03;31.70;22.60
19242;DHT22;9755;47.790;9.620;2023-05-07T12:28:36;31.50;25.50
19242;DHT22;9755;47.790;9.620;2023-05-07T12:31:04;31.20;22.80
19242;DHT22;9755;47.790;9.620;2023-05-07T12:33:31;31.50;22.80
19242;DHT22;9755;47.790;9.620;2023-05-07T12:36:03;30.60;21.60
19242;DHT22;9755;47.790;9.620;2023-05-07T12:38:35;31.30;23.90
19242;DHT22;9755;47.790;9.620;2023-05-07T12:41:06;32.00;22.40
19242;DHT22;9755;47.790;9.620;2023-05-07T12:43:34;32.50;21.90
19242;DHT22;9755;47.790;9.620;2023-05-07T12:46:03;32.80;21.50
19242;DHT22;9755;47.790;9.620;2023-05-07T12:48:30;32.00;20.10
19242;DHT22;9755;47.790;9.620;2023-05-07T12:50:59;31.40;19.60
19242;DHT22;9755;47.790;9.620;2023-05-07T12:53:27;30.50;20.10
19242;DHT22;9755;47.790;9.620;2023-05-07T12:55:56;29.80;17.90
19242;DHT22;9755;47.790;9.620;2023-05-07T12:58:26;28.20;18.90
19242;DHT22;9755;47.790;9.620;2023-05-07T13:00:54;29.30;20.80
19242;DHT22;9755;47.790;9.620;2023-05-07T13:03:25;30.20;20.50
19242;DHT22;9755;47.790;9.620;2023-05-07T13:05:53;31.20;21.70
19242;DHT22;9755;47.790;9.620;2023-05-07T13:08:28;29.30;20.70
19242;DHT22;9755;47.790;9.620;2023-05-07T13:10:56;29.50;21.10
19242;DHT22;9755;47.790;9.620;2023-05-07T13:13:24;29.80;22.20
19242;DHT22;9755;47.790;9.620;2023-05-07T13:15:51;29.90;21.60
19242;DHT22;9755;47.790;9.620;2023-05-07T13:18:18;30.50;20.60
19242;DHT22;9755;47.790;9.620;2023-05-07T13:20:46;31.30;21.40
19242;DHT22;9755;47.790;9.620;2023-05-07T13:23:13;29.70;19.70
19242;DHT22;9755;47.790;9.620;2023-05-07T13:25:40;29.10;20.90
19242;DHT22;9755;47.790;9.620;2023-05-07T13:28:07;28.40;19.90
19242;DHT22;9755;47.790;9.620;2023-05-07T13:30:35;28.70;20.90
19242;DHT22;9755;47.790;9.620;2023-05-07T13:33:02;29.60;22.60
19242;DHT22;9755;47.790;9.620;2023-05-07T13:35:29;30.00;23.80
19242;DHT22;9755;47.790;9.620;2023-05-07T13:37:56;30.40;24.60
19242;DHT22;9755;47.790;9.620;2023-05-07T13:40:23;31.00;24.90
19242;DHT22;9755;47.790;9.620;2023-05-07T13:42:51;30.80;23.90
19242;DHT22;9755;47.790;9.620;2023-05-07T13:45:18;30.90;23.80
19242;DHT22;9755;47.790;9.620;2023-05-07T13:47:46;31.10;24.30
19242;DHT22;9755;47.790;9.620;2023-05-07T13:50:15;31.20;25.30
19242;DHT22;9755;47.790;9.620;2023-05-07T13:52:43;31.20;24.00
19242;DHT22;9755;47.790;9.620;2023-05-07T13:55:16;31.00;23.70
19242;DHT22;9755;47.790;9.620;2023-05-07T13:57:43;30.90;24.30
19242;DHT22;9755;47.790;9.620;2023-05-07T14:00:11;31.40;24.10
19242;DHT22;9755;47.790;9.620;2023-05-07T14:02:38;31.50;24.10
19242;DHT22;9755;47.790;9.620;2023-05-07T14:05:07;31.50;24.30
19242;DHT22;9755;47.790;9.620;2023-05-07T14:07:35;31.80;24.90
19242;DHT22;9755;47.790;9.620;2023-05-07T14:15:19;32.10;24.70
19242;DHT22;9755;47.790;9.620;2023-05-07T14:17:46;31.80;24.00
19242;DHT22;9755;47.790;9.620;2023-05-07T14:20:15;31.60;23.30
19242;DHT22;9755;47.790;9.620;2023-05-07T14:22:42;31.40;22.50
19242;DHT22;9755;47.790;9.620;2023-05-07T14:25:09;31.40;22.50
19242;DHT22;9755;47.790;9.620;2023-05-07T14:27:36;31.20;22.40
19242;DHT22;9755;47.790;9.620;2023-05-07T14:30:04;31.00;22.70
19242;DHT22;9755;47.790;9.620;2023-05-07T14:32:32;31.10;23.10
19242;DHT22;9755;47.790;9.620;2023-05-07T14:34:59;31.30;23.00
19242;DHT22;9755;47.790;9.620;2023-05-07T14:37:27;31.30;21.90
19242;DHT22;9755;47.790;9.620;2023-05-07T14:39:54;31.40;22.50
19242;DHT22;9755;47.790;9.620;2023-05-07T14:42:21;31.00;22.60
19242;DHT22;9755;47.790;9.620;2023-05-07T14:44:48;30.80;23.50
19242;DHT22;9755;47.790;9.620;2023-05-07T14:47:15;30.70;24.10
19242;DHT22;9755;47.790;9.620;2023-05-07T14:49:42;30.40;24.70
19242;DHT22;9755;47.790;9.620;2023-05-07T14:52:09;30.00;24.60
19242;DHT22;9755;47.790;9.620;2023-05-07T14:54:38;29.80;24.60
19242;DHT22;9755;47.790;9.620;2023-05-07T14:57:06;29.70;25.00
19242;DHT22;9755;47.790;9.620;2023-05-07T14:59:33;28.40;22.40
19242;DHT22;9755;47.790;9.620;2023-05-07T15:02:01;27.30;20.70
19242;DHT22;9755;47.790;9.620;2023-05-07T15:04:28;26.40;20.90
19242;DHT22;9755;47.790;9.620;2023-05-07T15:06:55;25.90;20.70
19242;DHT22;9755;47.790;9.620;2023-05-07T15:09:22;25.70;21.80
19242;DHT22;9755;47.790;9.620;2023-05-07T15:11:50;25.70;23.10
19242;DHT22;9755;47.790;9.620;2023-05-07T15:14:17;25.90;23.70
19242;DHT22;9755;47.790;9.620;2023-05-07T15:16:45;25.70;24.60
19242;DHT22;9755;47.790;9.620;2023-05-07T15:19:12;26.00;26.40
19242;DHT22;9755;47.790;9.620;2023-05-07T15:21:40;25.60;27.40
19242;DHT22;9755;47.790;9.620;2023-05-07T15:24:08;25.40;28.20
19242;DHT22;9755;47.790;9.620;2023-05-07T15:26:35;24.90;28.50
19242;DHT22;9755;47.790;9.620;2023-05-07T15:29:04;24.80;29.30
19242;DHT22;9755;47.790;9.620;2023-05-07T15:31:35;24.90;29.10
19242;DHT22;9755;47.790;9.620;2023-05-07T15:34:03;24.80;28.80
19242;DHT22;9755;47.790;9.620;2023-05-07T15:36:30;25.10;29.30
19242;DHT22;9755;47.790;9.620;2023-05-07T15:38:57;25.10;30.00
19242;DHT22;9755;47.790;9.620;2023-05-07T15:41:24;25.80;30.20
19242;DHT22;9755;47.790;9.620;2023-05-07T15:43:52;26.10;30.70
19242;DHT22;9755;47.790;9.620;2023-05-07T15:46:22;26.30;31.80
19242;DHT22;9755;47.790;9.620;2023-05-07T15:48:50;25.90;30.20
19242;DHT22;9755;47.790;9.620;2023-05-07T15:51:17;26.00;30.20
19242;DHT22;9755;47.790;9.620;2023-05-07T15:53:45;25.80;31.90
19242;DHT22;9755;47.790;9.620;2023-05-07T15:56:12;25.20;33.40
19242;DHT22;9755;47.790;9.620;2023-05-07T15:58:39;24.60;34.70
19242;DHT22;9755;47.790;9.620;2023-05-07T16:01:06;24.00;36.50